sensor_id;sensor_type;location;lat;lon;timestamp;temperature;humidity
6496;DHT22;3281;47.658;9.166;2023-04-28T00:01:26;12.80;1.00
6496;DHT22;3281;47.658;9.166;2023-04-28T00:03:52;12.90;1.00
6496;DHT22;3281;47.658;9.166;2023-04-28T00:06:19;12.80;1.00
6496;DHT22;3281;47.658;9.166;2023-04-28T00:08:47;12.90;1.00
6496;DHT22;3281;47.658;9.166;2023-04-28T00:11:14;12.90;1.00
6496;DHT22;3281;47.658;9.166;2023-04-28T00:13:41;13.00;1.00
6496;DHT22;3281;47.658;9.166;2023-04-28T00:16:07;13.00;1.00
6496;DHT22;3281;47.658;9.166;2023-04-28T00:18:34;12.90;1.00
6496;DHT22;3281;47.658;9.166;2023-04-28T00:21:01;12.90;1.00
6496;DHT22;3281;47.658;9.166;2023-04-28T00:23:27;12.90;1.00
6496;DHT22;3281;47.658;9.166;2023-04-28T00:25:55;12.90;1.00
6496;DHT22;3281;47.658;9.166;2023-04-28T00:28:22;12.90;1.00
6496;DHT22;3281;47.658;9.166;2023-04-28T00:30:49;13.00;1.00
6496;DHT22;3281;47.658;9.166;2023-04-28T00:33:15;12.80;1.00
6496;DHT22;3281;47.658;9.166;2023-04-28T00:35:59;12.70;1.00
6496;DHT22;3281;47.658;9.166;2023-04-28T00:38:32;12.70;1.00
6496;DHT22;3281;47.658;9.166;2023-04-28T00:41:01;12.80;1.00
6496;DHT22;3281;47.658;9.166;2023-04-28T00:43:28;12.90;1.00
6496;DHT22;3281;47.658;9.166;2023-04-28T00:46:17;12.90;1.00
6496;DHT22;3281;47.658;9.166;2023-04-28T00:48:45;12.80;1.00
6496;DHT22;3281;47.658;9.166;2023-04-28T00:51:12;12.80;1.00
6496;DHT22;3281;47.658;9.166;2023-04-28T00:53:39;12.80;1.00
6496;DHT22;3281;47.658;9.166;2023-04-28T00:56:08;12.80;1.00
6496;DHT22;3281;47.658;9.166;2023-04-28T00:58:35;12.80;1.00
6496;DHT22;3281;47.658;9.166;2023-04-28T01:01:03;12.70;1.00
6496;DHT22;3281;47.658;9.166;2023-04-28T01:03:30;12.60;1.00
6496;DHT22;3281;47.658;9.166;2023-04-28T01:05:59;12.60;1.00
6496;DHT22;3281;47.658;9.166;2023-04-28T01:08:28;12.50;1.00
6496;DHT22;3281;47.658;9.166;2023-04-28T01:10:55;12.40;1.00
6496;DHT22;3281;47.658;9.166;2023-04-28T01:13:23;12.40;1.00
6496;DHT22;3281;47.658;9.166;2023-04-28T01:15:53;12.40;1.00
6496;DHT22;3281;47.658;9.166;2023-04-28T01:18:25;12.40;1.00
6496;DHT22;3281;47.658;9.166;2023-04-28T01:20:56;12.40;1.00
6496;DHT22;3281;47.658;9.166;2023-04-28T01:23:22;12.30;1.00
6496;DHT22;3281;47.658;9.166;2023-04-28T01:25:51;12.30;1.00
6496;DHT22;3281;47.658;9.166;2023-04-28T01:28:17;12.40;1.00
6496;DHT22;3281;47.658;9.166;2023-04-28T01:30:44;12.40;1.00
6496;DHT22;3281;47.658;9.166;2023-04-28T01:33:11;12.30;1.00
6496;DHT22;3281;47.658;9.166;2023-04-28T01:35:37;12.20;1.00
6496;DHT22;3281;47.658;9.166;2023-04-28T01:38:04;12.10;1.00
6496;DHT22;3281;47.658;9.166;2023-04-28T01:40:31;12.30;1.00
6496;DHT22;3281;47.658;9.166;2023-04-28T01:43:01;12.20;1.00
6496;DHT22;3281;47.658;9.166;2023-04-28T01:45:28;12.20;1.00
6496;DHT22;3281;47.658;9.166;2023-04-28T01:47:54;12.30;1.00
6496;DHT22;3281;47.658;9.166;2023-04-28T01:50:21;12.30;1.00
6496;DHT22;3281;47.658;9.166;2023-04-28T01:52:48;12.30;1.00
6496;DHT22;3281;47.658;9.166;2023-04-28T01:55:14;12.20;1.00
6496;DHT22;3281;47.658;9.166;2023-04-28T01:57:41;12.20;1.00
6496;DHT22;3281;47.658;9.166;2023-04-28T02:00:10;12.10;1.00
6496;DHT22;3281;47.658;9.166;2023-04-28T02:02:37;12.10;1.00
6496;DHT22;3281;47.658;9.166;2023-04-28T02:05:04;12.20;1.00
6496;DHT22;3281;47.658;9.166;2023-04-28T02:07:31;12.10;1.00
6496;DHT22;3281;47.658;9.166;2023-04-28T02:09:57;12.10;1.00
6496;DHT22;3281;47.658;9.166;2023-04-28T02:12:24;12.10;1.00
6496;DHT22;3281;47.658;9.166;2023-04-28T02:14:51;12.00;1.00
6496;DHT22;3281;47.658;9.166;2023-04-28T02:17:19;12.10;1.00
6496;DHT22;3281;47.658;9.166;2023-04-28T02:19:45;12.10;1.00
6496;DHT22;3281;47.658;9.166;2023-04-28T02:22:12;12.10;1.00
6496;DHT22;3281;47.658;9.166;2023-04-28T02:24:39;12.00;1.00
6496;DHT22;3281;47.658;9.166;2023-04-28T02:27:06;12.00;1.00
6496;DHT22;3281;47.658;9.166;2023-04-28T02:29:33;12.00;1.00
6496;DHT22;3281;47.658;9.166;2023-04-28T02:31:59;12.10;1.00
6496;DHT22;3281;47.658;9.166;2023-04-28T02:34:28;12.00;1.00
6496;DHT22;3281;47.658;9.166;2023-04-28T02:36:55;12.00;1.00
6496;DHT22;3281;47.658;9.166;2023-04-28T02:39:21;11.90;1.00
6496;DHT22;3281;47.658;9.166;2023-04-28T02:41:51;11.80;1.00
6496;DHT22;3281;47.658;9.166;2023-04-28T02:44:18;11.80;1.00
6496;DHT22;3281;47.658;9.166;2023-04-28T02:46:45;11.80;1.00
6496;DHT22;3281;47.658;9.166;2023-04-28T02:49:12;12.00;1.00
6496;DHT22;3281;47.658;9.166;2023-04-28T02:51:40;12.00;1.00
6496;DHT22;3281;47.658;9.166;2023-04-28T02:54:07;12.00;1.00
6496;DHT22;3281;47.658;9.166;2023-04-28T02:56:33;12.00;1.00
6496;DHT22;3281;47.658;9.166;2023-04-28T02:59:01;12.00;1.00
6496;DHT22;3281;47.658;9.166;2023-04-28T03:01:28;12.10;1.00
6496;DHT22;3281;47.658;9.166;2023-04-28T03:03:54;12.20;1.00
6496;DHT22;3281;47.658;9.166;2023-04-28T03:06:21;12.10;1.00
6496;DHT22;3281;47.658;9.166;2023-04-28T03:08:50;12.10;1.00
6496;DHT22;3281;47.658;9.166;2023-04-28T03:11:17;12.00;1.00
6496;DHT22;3281;47.658;9.166;2023-04-28T03:13:43;11.90;1.00
6496;DHT22;3281;47.658;9.166;2023-04-28T03:16:10;11.80;1.00
6496;DHT22;3281;47.658;9.166;2023-04-28T03:18:37;12.00;1.00
6496;DHT22;3281;47.658;9.166;2023-04-28T03:21:03;12.10;1.00
6496;DHT22;3281;47.658;9.166;2023-04-28T03:23:30;12.20;1.00
6496;DHT22;3281;47.658;9.166;2023-04-28T03:25:58;12.20;1.00
6496;DHT22;3281;47.658;9.166;2023-04-28T03:28:25;12.20;1.00
6496;DHT22;3281;47.658;9.166;2023-04-28T03:30:51;12.20;1.00
6496;DHT22;3281;47.658;9.166;2023-04-28T03:33:18;12.10;1.00
6496;DHT22;3281;47.658;9.166;2023-04-28T03:35:45;12.20;1.00
6496;DHT22;3281;47.658;9.166;2023-04-28T03:38:11;12.00;1.00
6496;DHT22;3281;47.658;9.166;2023-04-28T03:40:39;11.90;1.00
6496;DHT22;3281;47.658;9.166;2023-04-28T03:43:07;11.90;1.00
6496;DHT22;3281;47.658;9.166;2023-04-28T03:45:33;11.80;1.00
6496;DHT22;3281;47.658;9.166;2023-04-28T03:48:00;11.90;1.00
6496;DHT22;3281;47.658;9.166;2023-04-28T03:50:27;12.10;1.00
6496;DHT22;3281;47.658;9.166;2023-04-28T03:52:53;12.10;1.00
6496;DHT22;3281;47.658;9.166;2023-04-28T03:55:20;12.10;2.10
6496;DHT22;3281;47.658;9.166;2023-04-28T03:57:47;12.00;1.00
6496;DHT22;3281;47.658;9.166;2023-04-28T04:00:15;11.90;1.60
6496;DHT22;3281;47.658;9.166;2023-04-28T04:02:42;12.00;5.30
6496;DHT22;3281;47.658;9.166;2023-04-28T04:05:09;12.00;6.40
6496;DHT22;3281;47.658;9.166;2023-04-28T04:07:35;11.80;5.20
6496;DHT22;3281;47.658;9.166;2023-04-28T04:10:02;11.70;4.90
6496;DHT22;3281;47.658;9.166;2023-04-28T04:12:29;11.80;5.30
6496;DHT22;3281;47.658;9.166;2023-04-28T04:14:56;11.70;8.20
6496;DHT22;3281;47.658;9.166;2023-04-28T04:17:24;11.80;9.80
6496;DHT22;3281;47.658;9.166;2023-04-28T04:19:51;11.90;14.00
6496;DHT22;3281;47.658;9.166;2023-04-28T04:22:18;12.10;18.40
6496;DHT22;3281;47.658;9.166;2023-04-28T04:24:44;12.10;19.40
6496;DHT22;3281;47.658;9.166;2023-04-28T04:27:11;12.00;20.10
6496;DHT22;3281;47.658;9.166;2023-04-28T04:29:38;12.00;23.20
6496;DHT22;3281;47.658;9.166;2023-04-28T04:32:05;11.90;24.60
6496;DHT22;3281;47.658;9.166;2023-04-28T04:34:33;11.80;24.70
6496;DHT22;3281;47.658;9.166;2023-04-28T04:37:00;11.80;25.80
6496;DHT22;3281;47.658;9.166;2023-04-28T04:39:26;11.90;28.90
6496;DHT22;3281;47.658;9.166;2023-04-28T04:41:53;11.80;29.10
6496;DHT22;3281;47.658;9.166;2023-04-28T04:44:20;11.80;29.10
6496;DHT22;3281;47.658;9.166;2023-04-28T04:46:47;11.90;33.20
6496;DHT22;3281;47.658;9.166;2023-04-28T04:49:13;11.90;35.50
6496;DHT22;3281;47.658;9.166;2023-04-28T04:51:42;12.00;38.60
6496;DHT22;3281;47.658;9.166;2023-04-28T04:54:08;12.00;43.30
6496;DHT22;3281;47.658;9.166;2023-04-28T04:56:35;12.00;43.70
6496;DHT22;3281;47.658;9.166;2023-04-28T04:59:02;11.90;45.90
6496;DHT22;3281;47.658;9.166;2023-04-28T05:01:29;11.80;45.40
6496;DHT22;3281;47.658;9.166;2023-04-28T05:03:55;11.90;48.70
6496;DHT22;3281;47.658;9.166;2023-04-28T05:06:22;12.00;53.20
6496;DHT22;3281;47.658;9.166;2023-04-28T05:08:50;11.80;52.20
6496;DHT22;3281;47.658;9.166;2023-04-28T05:11:17;11.90;53.90
6496;DHT22;3281;47.658;9.166;2023-04-28T05:13:44;11.70;51.10
6496;DHT22;3281;47.658;9.166;2023-04-28T05:16:11;11.70;54.00
6496;DHT22;3281;47.658;9.166;2023-04-28T05:18:37;11.80;55.10
6496;DHT22;3281;47.658;9.166;2023-04-28T05:21:04;11.70;54.40
6496;DHT22;3281;47.658;9.166;2023-04-28T05:23:31;11.80;54.40
6496;DHT22;3281;47.658;9.166;2023-04-28T05:25:59;11.90;58.70
6496;DHT22;3281;47.658;9.166;2023-04-28T05:28:27;11.80;57.00
6496;DHT22;3281;47.658;9.166;2023-04-28T05:30:54;11.80;55.50
6496;DHT22;3281;47.658;9.166;2023-04-28T05:33:20;11.80;54.50
6496;DHT22;3281;47.658;9.166;2023-04-28T05:35:48;11.80;54.00
6496;DHT22;3281;47.658;9.166;2023-04-28T05:38:15;11.90;55.60
6496;DHT22;3281;47.658;9.166;2023-04-28T05:40:41;12.00;58.90
6496;DHT22;3281;47.658;9.166;2023-04-28T05:43:09;12.10;63.00
6496;DHT22;3281;47.658;9.166;2023-04-28T05:45:37;12.10;64.10
6496;DHT22;3281;47.658;9.166;2023-04-28T05:48:04;12.00;59.40
6496;DHT22;3281;47.658;9.166;2023-04-28T05:50:31;12.00;58.30
6496;DHT22;3281;47.658;9.166;2023-04-28T05:52:57;12.10;59.40
6496;DHT22;3281;47.658;9.166;2023-04-28T05:55:24;12.20;62.70
6496;DHT22;3281;47.658;9.166;2023-04-28T05:57:52;12.30;60.60
6496;DHT22;3281;47.658;9.166;2023-04-28T06:00:20;12.40;59.30
6496;DHT22;3281;47.658;9.166;2023-04-28T06:02:47;12.40;57.40
6496;DHT22;3281;47.658;9.166;2023-04-28T06:05:14;12.40;57.10
6496;DHT22;3281;47.658;9.166;2023-04-28T06:07:40;12.40;57.90
6496;DHT22;3281;47.658;9.166;2023-04-28T06:10:08;12.30;54.50
6496;DHT22;3281;47.658;9.166;2023-04-28T06:12:35;12.40;57.70
6496;DHT22;3281;47.658;9.166;2023-04-28T06:15:02;12.40;59.90
6496;DHT22;3281;47.658;9.166;2023-04-28T06:17:30;12.40;55.00
6496;DHT22;3281;47.658;9.166;2023-04-28T06:19:58;12.50;57.80
6496;DHT22;3281;47.658;9.166;2023-04-28T06:22:25;12.60;60.20
6496;DHT22;3281;47.658;9.166;2023-04-28T06:24:52;12.40;56.30
6496;DHT22;3281;47.658;9.166;2023-04-28T06:27:18;12.60;59.90
6496;DHT22;3281;47.658;9.166;2023-04-28T06:29:45;12.60;61.30
6496;DHT22;3281;47.658;9.166;2023-04-28T06:32:12;12.60;61.50
6496;DHT22;3281;47.658;9.166;2023-04-28T06:34:41;12.60;60.00
6496;DHT22;3281;47.658;9.166;2023-04-28T06:37:08;12.60;62.20
6496;DHT22;3281;47.658;9.166;2023-04-28T06:39:34;12.60;60.70
6496;DHT22;3281;47.658;9.166;2023-04-28T06:42:02;12.70;66.10
6496;DHT22;3281;47.658;9.166;2023-04-28T06:44:29;12.80;68.00
6496;DHT22;3281;47.658;9.166;2023-04-28T06:46:56;12.80;66.00
6496;DHT22;3281;47.658;9.166;2023-04-28T06:49:22;12.80;65.90
6496;DHT22;3281;47.658;9.166;2023-04-28T06:51:50;12.70;61.70
6496;DHT22;3281;47.658;9.166;2023-04-28T06:54:17;12.80;66.20
6496;DHT22;3281;47.658;9.166;2023-04-28T06:56:44;12.80;66.90
6496;DHT22;3281;47.658;9.166;2023-04-28T06:59:10;12.70;65.90
6496;DHT22;3281;47.658;9.166;2023-04-28T07:01:37;12.70;65.90
6496;DHT22;3281;47.658;9.166;2023-04-28T07:04:04;12.80;70.70
6496;DHT22;3281;47.658;9.166;2023-04-28T07:06:30;12.90;75.40
6496;DHT22;3281;47.658;9.166;2023-04-28T07:08:59;12.70;65.80
6496;DHT22;3281;47.658;9.166;2023-04-28T07:11:25;12.90;68.40
6496;DHT22;3281;47.658;9.166;2023-04-28T07:13:52;12.90;72.20
6496;DHT22;3281;47.658;9.166;2023-04-28T07:16:19;12.90;70.70
6496;DHT22;3281;47.658;9.166;2023-04-28T07:18:46;12.80;66.00
6496;DHT22;3281;47.658;9.166;2023-04-28T07:21:13;12.80;66.00
6496;DHT22;3281;47.658;9.166;2023-04-28T07:23:40;12.80;62.10
6496;DHT22;3281;47.658;9.166;2023-04-28T07:26:09;12.80;60.40
6496;DHT22;3281;47.658;9.166;2023-04-28T07:28:35;12.70;62.90
6496;DHT22;3281;47.658;9.166;2023-04-28T07:31:02;12.70;62.90
6496;DHT22;3281;47.658;9.166;2023-04-28T07:33:29;12.70;59.90
6496;DHT22;3281;47.658;9.166;2023-04-28T07:35:55;12.90;70.90
6496;DHT22;3281;47.658;9.166;2023-04-28T07:38:22;12.80;67.70
6496;DHT22;3281;47.658;9.166;2023-04-28T07:40:49;12.80;66.40
6496;DHT22;3281;47.658;9.166;2023-04-28T07:43:17;12.80;64.00
6496;DHT22;3281;47.658;9.166;2023-04-28T07:45:43;12.80;65.80
6496;DHT22;3281;47.658;9.166;2023-04-28T07:48:13;12.80;60.10
6496;DHT22;3281;47.658;9.166;2023-04-28T07:50:40;12.90;66.10
6496;DHT22;3281;47.658;9.166;2023-04-28T07:53:07;12.90;66.00
6496;DHT22;3281;47.658;9.166;2023-04-28T07:55:34;12.90;66.10
6496;DHT22;3281;47.658;9.166;2023-04-28T07:58:01;12.80;66.00
6496;DHT22;3281;47.658;9.166;2023-04-28T08:00:29;12.70;61.60
6496;DHT22;3281;47.658;9.166;2023-04-28T08:02:55;12.70;65.70
6496;DHT22;3281;47.658;9.166;2023-04-28T08:05:23;12.80;72.20
6496;DHT22;3281;47.658;9.166;2023-04-28T08:07:50;12.70;71.90
6496;DHT22;3281;47.658;9.166;2023-04-28T08:10:17;12.60;73.20
6496;DHT22;3281;47.658;9.166;2023-04-28T08:12:43;12.60;73.80
6496;DHT22;3281;47.658;9.166;2023-04-28T08:15:10;12.70;82.10
6496;DHT22;3281;47.658;9.166;2023-04-28T08:17:39;12.70;89.40
6496;DHT22;3281;47.658;9.166;2023-04-28T08:20:07;12.70;90.70
6496;DHT22;3281;47.658;9.166;2023-04-28T08:22:34;12.70;90.30
6496;DHT22;3281;47.658;9.166;2023-04-28T08:25:00;12.80;92.00
6496;DHT22;3281;47.658;9.166;2023-04-28T08:27:27;12.90;93.00
6496;DHT22;3281;47.658;9.166;2023-04-28T08:29:54;12.80;92.10
6496;DHT22;3281;47.658;9.166;2023-04-28T08:32:20;12.80;92.10
6496;DHT22;3281;47.658;9.166;2023-04-28T08:34:49;12.90;94.30
6496;DHT22;3281;47.658;9.166;2023-04-28T08:37:15;12.90;95.60
6496;DHT22;3281;47.658;9.166;2023-04-28T08:39:42;12.80;94.50
6496;DHT22;3281;47.658;9.166;2023-04-28T08:42:09;13.10;97.10
6496;DHT22;3281;47.658;9.166;2023-04-28T08:44:36;12.90;97.10
6496;DHT22;3281;47.658;9.166;2023-04-28T08:47:10;13.10;99.90
6496;DHT22;3281;47.658;9.166;2023-04-28T08:49:37;13.20;99.90
6496;DHT22;3281;47.658;9.166;2023-04-28T08:52:10;13.10;99.90
6496;DHT22;3281;47.658;9.166;2023-04-28T08:54:38;13.30;99.90
6496;DHT22;3281;47.658;9.166;2023-04-28T08:57:08;13.30;99.90
6496;DHT22;3281;47.658;9.166;2023-04-28T08:59:38;13.20;99.90
6496;DHT22;3281;47.658;9.166;2023-04-28T09:02:06;13.20;99.90
6496;DHT22;3281;47.658;9.166;2023-04-28T09:04:33;13.20;99.90
6496;DHT22;3281;47.658;9.166;2023-04-28T09:07:00;13.30;99.90
6496;DHT22;3281;47.658;9.166;2023-04-28T09:09:29;13.60;99.90
6496;DHT22;3281;47.658;9.166;2023-04-28T09:11:57;13.60;99.90
6496;DHT22;3281;47.658;9.166;2023-04-28T09:14:25;13.60;99.90
6496;DHT22;3281;47.658;9.166;2023-04-28T09:16:54;13.70;99.90
6496;DHT22;3281;47.658;9.166;2023-04-28T09:19:21;13.70;99.90
6496;DHT22;3281;47.658;9.166;2023-04-28T09:21:49;13.70;99.90
6496;DHT22;3281;47.658;9.166;2023-04-28T09:24:28;13.80;99.90
6496;DHT22;3281;47.658;9.166;2023-04-28T09:26:55;13.60;99.90
6496;DHT22;3281;47.658;9.166;2023-04-28T09:29:22;13.70;99.90
6496;DHT22;3281;47.658;9.166;2023-04-28T09:31:49;13.70;99.90
6496;DHT22;3281;47.658;9.166;2023-04-28T09:34:17;13.80;99.90
6496;DHT22;3281;47.658;9.166;2023-04-28T09:36:44;13.80;99.90
6496;DHT22;3281;47.658;9.166;2023-04-28T09:39:11;13.60;99.90
6496;DHT22;3281;47.658;9.166;2023-04-28T09:41:40;13.60;99.90
6496;DHT22;3281;47.658;9.166;2023-04-28T09:44:11;13.50;99.90
6496;DHT22;3281;47.658;9.166;2023-04-28T09:46:38;13.60;99.90
6496;DHT22;3281;47.658;9.166;2023-04-28T09:49:05;13.60;99.90
6496;DHT22;3281;47.658;9.166;2023-04-28T09:51:33;13.60;99.90
6496;DHT22;3281;47.658;9.166;2023-04-28T09:54:00;13.80;99.90
6496;DHT22;3281;47.658;9.166;2023-04-28T09:56:28;13.80;99.90
6496;DHT22;3281;47.658;9.166;2023-04-28T09:58:56;13.80;99.90
6496;DHT22;3281;47.658;9.166;2023-04-28T10:01:24;13.80;99.90
6496;DHT22;3281;47.658;9.166;2023-04-28T10:03:53;13.60;99.90
6496;DHT22;3281;47.658;9.166;2023-04-28T10:06:22;13.70;99.90
6496;DHT22;3281;47.658;9.166;2023-04-28T10:08:50;13.60;99.90
6496;DHT22;3281;47.658;9.166;2023-04-28T10:11:16;13.60;99.90
6496;DHT22;3281;47.658;9.166;2023-04-28T10:13:45;13.50;99.90
6496;DHT22;3281;47.658;9.166;2023-04-28T10:16:13;13.50;99.90
6496;DHT22;3281;47.658;9.166;2023-04-28T10:18:40;13.60;99.90
6496;DHT22;3281;47.658;9.166;2023-04-28T10:21:08;13.50;99.90
6496;DHT22;3281;47.658;9.166;2023-04-28T10:23:46;13.50;99.90
6496;DHT22;3281;47.658;9.166;2023-04-28T10:26:18;13.70;99.90
6496;DHT22;3281;47.658;9.166;2023-04-28T10:28:46;13.70;99.90
6496;DHT22;3281;47.658;9.166;2023-04-28T10:31:16;13.80;99.90
6496;DHT22;3281;47.658;9.166;2023-04-28T10:33:43;14.00;99.90
6496;DHT22;3281;47.658;9.166;2023-04-28T10:36:10;13.80;99.90
6496;DHT22;3281;47.658;9.166;2023-04-28T10:39:07;13.90;99.90
6496;DHT22;3281;47.658;9.166;2023-04-28T10:41:35;14.10;99.90
6496;DHT22;3281;47.658;9.166;2023-04-28T10:47:14;14.20;97.90
6496;DHT22;3281;47.658;9.166;2023-04-28T10:50:05;14.50;99.90
6496;DHT22;3281;47.658;9.166;2023-04-28T10:52:47;14.50;97.30
6496;DHT22;3281;47.658;9.166;2023-04-28T10:55:30;14.40;96.80
6496;DHT22;3281;47.658;9.166;2023-04-28T10:58:31;14.40;95.00
6496;DHT22;3281;47.658;9.166;2023-04-28T11:01:23;14.40;96.50
6496;DHT22;3281;47.658;9.166;2023-04-28T11:03:52;14.40;97.30
6496;DHT22;3281;47.658;9.166;2023-04-28T11:06:25;14.20;93.70
6496;DHT22;3281;47.658;9.166;2023-04-28T11:08:53;14.40;95.20
6496;DHT22;3281;47.658;9.166;2023-04-28T11:11:23;14.30;94.40
6496;DHT22;3281;47.658;9.166;2023-04-28T11:13:52;14.40;95.30
6496;DHT22;3281;47.658;9.166;2023-04-28T11:16:23;14.40;96.00
6496;DHT22;3281;47.658;9.166;2023-04-28T11:18:55;14.20;94.40
6496;DHT22;3281;47.658;9.166;2023-04-28T11:21:23;14.10;92.80
6496;DHT22;3281;47.658;9.166;2023-04-28T11:23:50;14.00;91.90
6496;DHT22;3281;47.658;9.166;2023-04-28T11:26:18;14.00;92.60
6496;DHT22;3281;47.658;9.166;2023-04-28T11:28:50;14.10;95.10
6496;DHT22;3281;47.658;9.166;2023-04-28T11:31:17;14.00;93.30
6496;DHT22;3281;47.658;9.166;2023-04-28T11:33:48;14.00;91.90
6496;DHT22;3281;47.658;9.166;2023-04-28T11:36:23;14.00;90.10
6496;DHT22;3281;47.658;9.166;2023-04-28T11:38:50;14.20;90.20
6496;DHT22;3281;47.658;9.166;2023-04-28T11:41:17;14.30;91.00
6496;DHT22;3281;47.658;9.166;2023-04-28T11:43:44;14.30;91.40
6496;DHT22;3281;47.658;9.166;2023-04-28T11:46:18;14.40;92.40
6496;DHT22;3281;47.658;9.166;2023-04-28T11:48:46;14.40;90.20
6496;DHT22;3281;47.658;9.166;2023-04-28T11:51:31;14.50;90.10
6496;DHT22;3281;47.658;9.166;2023-04-28T11:53:59;14.60;90.30
6496;DHT22;3281;47.658;9.166;2023-04-28T11:56:26;14.60;88.10
6496;DHT22;3281;47.658;9.166;2023-04-28T11:59:00;14.60;85.00
6496;DHT22;3281;47.658;9.166;2023-04-28T12:01:27;14.90;89.30
6496;DHT22;3281;47.658;9.166;2023-04-28T12:03:54;15.00;92.00
6496;DHT22;3281;47.658;9.166;2023-04-28T12:06:21;15.00;89.40
6496;DHT22;3281;47.658;9.166;2023-04-28T12:08:49;15.10;90.00
6496;DHT22;3281;47.658;9.166;2023-04-28T12:11:17;15.10;84.50
6496;DHT22;3281;47.658;9.166;2023-04-28T12:14:05;15.10;80.20
6496;DHT22;3281;47.658;9.166;2023-04-28T12:16:40;15.00;78.50
6496;DHT22;3281;47.658;9.166;2023-04-28T12:19:09;15.10;84.50
6496;DHT22;3281;47.658;9.166;2023-04-28T12:21:37;15.20;80.80
6496;DHT22;3281;47.658;9.166;2023-04-28T12:24:18;15.30;80.30
6496;DHT22;3281;47.658;9.166;2023-04-28T12:26:46;15.40;82.80
6496;DHT22;3281;47.658;9.166;2023-04-28T12:29:34;15.50;80.50
6496;DHT22;3281;47.658;9.166;2023-04-28T12:32:02;15.60;72.50
6496;DHT22;3281;47.658;9.166;2023-04-28T12:34:29;15.70;76.00
6496;DHT22;3281;47.658;9.166;2023-04-28T12:36:58;15.80;80.80
6496;DHT22;3281;47.658;9.166;2023-04-28T12:39:26;15.80;74.90
6496;DHT22;3281;47.658;9.166;2023-04-28T12:41:52;15.90;61.10
6496;DHT22;3281;47.658;9.166;2023-04-28T12:44:19;15.90;57.80
6496;DHT22;3281;47.658;9.166;2023-04-28T12:46:46;16.00;62.80
6496;DHT22;3281;47.658;9.166;2023-04-28T12:49:13;16.10;63.60
6496;DHT22;3281;47.658;9.166;2023-04-28T12:51:40;16.10;58.70
6496;DHT22;3281;47.658;9.166;2023-04-28T12:54:07;16.30;65.50
6496;DHT22;3281;47.658;9.166;2023-04-28T12:56:35;16.30;63.60
6496;DHT22;3281;47.658;9.166;2023-04-28T12:59:02;16.10;58.70
6496;DHT22;3281;47.658;9.166;2023-04-28T13:01:29;16.00;54.40
6496;DHT22;3281;47.658;9.166;2023-04-28T13:03:55;16.00;57.30
6496;DHT22;3281;47.658;9.166;2023-04-28T13:06:22;15.90;57.60
6496;DHT22;3281;47.658;9.166;2023-04-28T13:08:49;15.90;52.30
6496;DHT22;3281;47.658;9.166;2023-04-28T13:11:16;15.80;52.20
6496;DHT22;3281;47.658;9.166;2023-04-28T13:13:44;15.90;57.40
6496;DHT22;3281;47.658;9.166;2023-04-28T13:16:10;16.00;61.10
6496;DHT22;3281;47.658;9.166;2023-04-28T13:18:38;16.10;65.70
6496;DHT22;3281;47.658;9.166;2023-04-28T13:21:05;16.20;62.30
6496;DHT22;3281;47.658;9.166;2023-04-28T13:23:32;16.20;57.90
6496;DHT22;3281;47.658;9.166;2023-04-28T13:25:59;16.10;52.90
6496;DHT22;3281;47.658;9.166;2023-04-28T13:28:27;16.10;55.80
6496;DHT22;3281;47.658;9.166;2023-04-28T13:30:55;16.00;53.40
6496;DHT22;3281;47.658;9.166;2023-04-28T13:33:22;16.10;52.80
6496;DHT22;3281;47.658;9.166;2023-04-28T13:35:55;16.10;52.50
6496;DHT22;3281;47.658;9.166;2023-04-28T13:38:22;16.10;48.50
6496;DHT22;3281;47.658;9.166;2023-04-28T13:40:50;16.10;49.80
6496;DHT22;3281;47.658;9.166;2023-04-28T13:43:16;16.10;46.60
6496;DHT22;3281;47.658;9.166;2023-04-28T13:45:43;16.20;47.00
6496;DHT22;3281;47.658;9.166;2023-04-28T13:48:11;16.30;52.60
6496;DHT22;3281;47.658;9.166;2023-04-28T13:50:38;16.30;46.20
6496;DHT22;3281;47.658;9.166;2023-04-28T13:53:04;16.40;43.30
6496;DHT22;3281;47.658;9.166;2023-04-28T13:55:31;16.40;40.70
6496;DHT22;3281;47.658;9.166;2023-04-28T13:57:58;16.40;41.10
6496;DHT22;3281;47.658;9.166;2023-04-28T14:00:27;16.50;42.40
6496;DHT22;3281;47.658;9.166;2023-04-28T14:02:55;16.60;39.60
6496;DHT22;3281;47.658;9.166;2023-04-28T14:05:23;16.70;40.90
6496;DHT22;3281;47.658;9.166;2023-04-28T14:07:50;16.70;36.90
6496;DHT22;3281;47.658;9.166;2023-04-28T14:10:17;16.80;36.30
6496;DHT22;3281;47.658;9.166;2023-04-28T14:12:44;17.00;40.80
6496;DHT22;3281;47.658;9.166;2023-04-28T14:15:10;17.10;22.60
6496;DHT22;3281;47.658;9.166;2023-04-28T14:17:37;16.60;14.40
6496;DHT22;3281;47.658;9.166;2023-04-28T14:20:05;16.40;14.50
6496;DHT22;3281;47.658;9.166;2023-04-28T14:22:33;16.10;18.50
6496;DHT22;3281;47.658;9.166;2023-04-28T14:25:00;15.80;12.30
6496;DHT22;3281;47.658;9.166;2023-04-28T14:27:27;15.50;11.50
6496;DHT22;3281;47.658;9.166;2023-04-28T14:29:54;15.40;11.90
6496;DHT22;3281;47.658;9.166;2023-04-28T14:32:20;15.30;12.10
6496;DHT22;3281;47.658;9.166;2023-04-28T14:34:48;15.40;16.20
6496;DHT22;3281;47.658;9.166;2023-04-28T14:37:15;15.50;15.90
6496;DHT22;3281;47.658;9.166;2023-04-28T14:39:43;15.70;16.30
6496;DHT22;3281;47.658;9.166;2023-04-28T14:42:10;15.80;15.90
6496;DHT22;3281;47.658;9.166;2023-04-28T14:44:37;15.90;14.80
6496;DHT22;3281;47.658;9.166;2023-04-28T14:47:04;16.00;14.50
6496;DHT22;3281;47.658;9.166;2023-04-28T14:49:31;15.90;11.90
6496;DHT22;3281;47.658;9.166;2023-04-28T14:51:58;15.80;14.10
6496;DHT22;3281;47.658;9.166;2023-04-28T14:54:25;15.80;14.90
6496;DHT22;3281;47.658;9.166;2023-04-28T14:56:53;15.80;13.20
6496;DHT22;3281;47.658;9.166;2023-04-28T14:59:20;15.80;12.80
6496;DHT22;3281;47.658;9.166;2023-04-28T15:01:47;15.80;13.50
6496;DHT22;3281;47.658;9.166;2023-04-28T15:04:15;15.80;9.10
6496;DHT22;3281;47.658;9.166;2023-04-28T15:06:42;15.80;10.90
6496;DHT22;3281;47.658;9.166;2023-04-28T15:09:09;15.70;10.90
6496;DHT22;3281;47.658;9.166;2023-04-28T15:11:36;15.70;10.90
6496;DHT22;3281;47.658;9.166;2023-04-28T15:14:04;15.60;12.30
6496;DHT22;3281;47.658;9.166;2023-04-28T15:16:30;15.60;10.20
6496;DHT22;3281;47.658;9.166;2023-04-28T15:18:57;15.70;12.40
6496;DHT22;3281;47.658;9.166;2023-04-28T15:21:24;15.60;10.20
6496;DHT22;3281;47.658;9.166;2023-04-28T15:23:53;15.50;4.50
6496;DHT22;3281;47.658;9.166;2023-04-28T15:26:19;15.30;2.70
6496;DHT22;3281;47.658;9.166;2023-04-28T15:28:48;15.30;7.00
6496;DHT22;3281;47.658;9.166;2023-04-28T15:31:16;15.30;8.30
6496;DHT22;3281;47.658;9.166;2023-04-28T15:33:42;15.30;12.10
6496;DHT22;3281;47.658;9.166;2023-04-28T15:36:09;15.30;9.70
6496;DHT22;3281;47.658;9.166;2023-04-28T15:38:36;15.20;6.30
6496;DHT22;3281;47.658;9.166;2023-04-28T15:41:04;15.20;8.90
6496;DHT22;3281;47.658;9.166;2023-04-28T15:43:31;15.20;12.10
6496;DHT22;3281;47.658;9.166;2023-04-28T15:45:58;15.30;9.30
6496;DHT22;3281;47.658;9.166;2023-04-28T15:48:26;15.40;12.20
6496;DHT22;3281;47.658;9.166;2023-04-28T15:50:53;15.50;16.40
6496;DHT22;3281;47.658;9.166;2023-04-28T15:53:20;15.70;17.00
6496;DHT22;3281;47.658;9.166;2023-04-28T15:55:47;15.80;18.80
6496;DHT22;3281;47.658;9.166;2023-04-28T15:58:13;15.90;17.00
6496;DHT22;3281;47.658;9.166;2023-04-28T16:00:40;16.00;17.20
6496;DHT22;3281;47.658;9.166;2023-04-28T16:03:09;16.20;16.90
6496;DHT22;3281;47.658;9.166;2023-04-28T16:05:38;16.30;15.50
6496;DHT22;3281;47.658;9.166;2023-04-28T16:08:04;16.30;14.00
6496;DHT22;3281;47.658;9.166;2023-04-28T16:10:31;16.40;12.80
6496;DHT22;3281;47.658;9.166;2023-04-28T16:12:58;16.50;17.20
6496;DHT22;3281;47.658;9.166;2023-04-28T16:15:25;16.50;19.00